Time;durP1;ratioP1;P1;durP2;ratioP2;P2;SDS_P1;SDS_P2;PMS_P1;PMS_P2;Temp;Humidity;BMP_temperature;BMP_pressure;BME280_temperature;BME280_humidity;BME280_pressure;Samples;Min_cycle;Max_cycle;Signal;HPM_P1;HPM_P2
2021/05/01 00:01:30;;;;;;;15.40;9.70;;;20.40;99.90;;;;;;5055330;28;20254;-72
2021/05/01 00:03:57;;;;;;;15.70;11.73;;;20.50;99.90;;;;;;5057335;28;20183;-71
2021/05/01 00:06:25;;;;;;;15.33;10.60;;;20.70;99.90;;;;;;5050529;28;20266;-74
2021/05/01 00:08:52;;;;;;;14.17;10.40;;;20.70;99.90;;;;;;5051218;28;20265;-73
2021/05/01 00:11:21;;;;;;;12.87;10.27;;;20.80;99.90;;;;;;5052447;28;20548;-74
2021/05/01 00:13:50;;;;;;;17.30;10.43;;;20.90;99.90;;;;;;5054556;28;20187;-75
2021/05/01 00:16:17;;;;;;;18.90;11.33;;;20.90;99.90;;;;;;5054018;28;20712;-74
2021/05/01 00:18:45;;;;;;;16.33;8.97;;;20.90;99.90;;;;;;5051711;28;20187;-71
2021/05/01 00:21:12;;;;;;;13.00;8.83;;;21.00;99.90;;;;;;5050355;28;20188;-72
2021/05/01 00:23:39;;;;;;;16.33;8.17;;;21.30;99.90;;;;;;5052423;28;20268;-71
2021/05/01 00:26:10;;;;;;;15.37;8.00;;;21.50;99.90;;;;;;5049742;28;20851;-70
2021/05/01 00:28:38;;;;;;;16.23;8.53;;;21.60;99.90;;;;;;5048781;28;20215;-73
2021/05/01 00:31:06;;;;;;;15.30;9.00;;;21.60;99.90;;;;;;5050252;28;20223;-70
2021/05/01 00:33:33;;;;;;;11.77;7.23;;;21.70;99.90;;;;;;5053104;28;20180;-74
2021/05/01 00:36:01;;;;;;;12.87;7.67;;;21.80;99.90;;;;;;5053755;28;20195;-70
2021/05/01 00:38:29;;;;;;;13.80;8.00;;;21.90;99.90;;;;;;5046886;28;20183;-72
2021/05/01 00:40:59;;;;;;;12.20;8.00;;;21.90;99.90;;;;;;5056405;28;20204;-71
2021/05/01 00:43:28;;;;;;;15.67;7.13;;;22.00;99.90;;;;;;5050891;28;20188;-70
2021/05/01 00:46:03;;;;;;;9.10;6.20;;;22.30;99.90;;;;;;5050022;28;20195;-70
2021/05/01 00:48:32;;;;;;;10.83;6.40;;;22.60;99.90;;;;;;5054247;28;20643;-73
2021/05/01 00:51:01;;;;;;;8.97;5.70;;;22.50;99.90;;;;;;5049757;28;20180;-72
2021/05/01 00:53:29;;;;;;;11.50;5.87;;;22.40;99.90;;;;;;5057390;28;20703;-69
2021/05/01 00:55:56;;;;;;;11.33;6.23;;;22.30;99.90;;;;;;5052563;28;20212;-69
2021/05/01 00:58:24;;;;;;;10.00;5.17;;;22.10;99.90;;;;;;5052949;28;20519;-71
2021/05/01 01:03:25;;;;;;;11.60;4.63;;;22.30;99.90;;;;;;5055764;28;20658;-70
2021/05/01 01:05:52;;;;;;;9.00;5.17;;;22.50;99.90;;;;;;5058279;28;20184;-69
2021/05/01 01:08:19;;;;;;;14.70;6.17;;;22.60;99.90;;;;;;5071187;28;20246;-69
2021/05/01 01:10:47;;;;;;;11.03;6.70;;;22.90;99.90;;;;;;5064838;28;20211;-74
2021/05/01 01:13:14;;;;;;;12.27;7.00;;;23.20;99.90;;;;;;5057913;28;20639;-75
2021/05/01 01:15:41;;;;;;;11.83;6.07;;;23.30;99.90;;;;;;5062394;28;20233;-77
2021/05/01 01:18:09;;;;;;;10.83;4.33;;;23.20;99.90;;;;;;5056816;28;20180;-73
2021/05/01 01:20:36;;;;;;;6.90;4.00;;;23.30;99.90;;;;;;5054866;28;20192;-73
2021/05/01 01:23:03;;;;;;;7.90;4.30;;;23.60;99.90;;;;;;5056434;28;20673;-75
2021/05/01 01:25:31;;;;;;;6.37;3.50;;;23.90;99.90;;;;;;5050599;28;20193;-76
2021/05/01 01:28:00;;;;;;;6.13;1.70;;;24.00;99.90;;;;;;5054679;28;20669;-74
2021/05/01 01:30:30;;;;;;;4.50;2.10;;;23.60;99.90;;;;;;5058299;28;20226;-75
2021/05/01 01:32:58;;;;;;;7.27;2.30;;;23.60;99.90;;;;;;5054848;28;20194;-73
2021/05/01 01:35:26;;;;;;;8.53;1.80;;;23.50;99.90;;;;;;5054462;28;20176;-73
2021/05/01 01:37:54;;;;;;;3.97;1.70;;;23.50;99.90;;;;;;5057965;28;20271;-74
2021/05/01 01:40:23;;;;;;;4.77;1.33;;;23.20;99.90;;;;;;5055321;28;20270;-73
2021/05/01 01:42:52;;;;;;;5.87;1.57;;;23.00;99.90;;;;;;5059102;28;20196;-72
2021/05/01 01:45:22;;;;;;;9.97;2.07;;;22.80;99.90;;;;;;5052835;28;20546;-72
2021/05/01 01:47:49;;;;;;;4.83;1.70;;;22.70;99.90;;;;;;5055138;28;20319;-75
2021/05/01 01:50:19;;;;;;;5.83;2.00;;;22.50;99.90;;;;;;5054391;28;20180;-75
2021/05/01 01:52:47;;;;;;;4.97;1.73;;;22.60;99.90;;;;;;5058125;28;20183;-74
2021/05/01 01:55:18;;;;;;;7.60;1.50;;;22.50;99.90;;;;;;5055771;28;20657;-75
2021/05/01 01:57:47;;;;;;;5.37;1.83;;;22.30;99.90;;;;;;5063479;28;20254;-76
2021/05/01 02:00:21;;;;;;;7.13;1.60;;;22.10;99.90;;;;;;5055910;28;20179;-73
2021/05/01 02:02:48;;;;;;;5.17;1.60;;;22.20;99.90;;;;;;5056092;28;20180;-73
2021/05/01 02:05:16;;;;;;;5.83;1.40;;;22.20;99.90;;;;;;5054285;28;20193;-73
2021/05/01 02:07:44;;;;;;;3.80;2.27;;;22.10;99.90;;;;;;5057102;28;20273;-74
2021/05/01 02:10:13;;;;;;;5.83;1.40;;;22.10;99.90;;;;;;5054042;28;20195;-75
2021/05/01 02:12:41;;;;;;;6.93;1.57;;;22.20;99.90;;;;;;5053794;28;20192;-72
2021/05/01 02:15:11;;;;;;;6.47;1.70;;;22.30;99.90;;;;;;5055031;28;20596;-74
2021/05/01 02:17:46;;;;;;;4.83;1.80;;;22.60;99.90;;;;;;5054008;28;20188;-73
2021/05/01 02:20:15;;;;;;;5.57;1.80;;;22.60;99.90;;;;;;5054863;28;20274;-74
2021/05/01 02:22:43;;;;;;;9.03;3.67;;;22.50;99.90;;;;;;5054612;28;20184;-75
2021/05/01 02:25:12;;;;;;;3.50;1.60;;;22.50;99.90;;;;;;5056713;28;20598;-73
2021/05/01 02:27:41;;;;;;;5.90;1.53;;;22.60;99.90;;;;;;5052371;28;20212;-72
2021/05/01 02:30:15;;;;;;;3.23;1.53;;;23.00;99.90;;;;;;5060113;28;20273;-72
2021/05/01 02:32:42;;;;;;;6.33;1.97;;;23.30;99.90;;;;;;5054863;28;20642;-75
2021/05/01 02:35:12;;;;;;;4.20;2.23;;;23.00;99.90;;;;;;5053317;28;20176;-75
2021/05/01 02:37:39;;;;;;;5.23;2.13;;;22.70;99.90;;;;;;5056733;28;20211;-74
2021/05/01 02:40:09;;;;;;;6.03;1.87;;;23.20;99.90;;;;;;5052802;28;20563;-74
2021/05/01 02:42:41;;;;;;;5.07;1.60;;;23.80;99.90;;;;;;5057311;28;20619;-74
2021/05/01 02:45:12;;;;;;;4.13;1.70;;;23.80;99.90;;;;;;5052831;28;20234;-75
2021/05/01 02:47:40;;;;;;;7.97;2.53;;;23.50;99.90;;;;;;5052815;28;20211;-76
2021/05/01 02:50:09;;;;;;;4.60;1.63;;;23.50;99.90;;;;;;5051819;28;20192;-75
2021/05/01 02:52:36;;;;;;;8.57;2.13;;;24.20;99.90;;;;;;5051500;28;20237;-72
2021/05/01 02:55:08;;;;;;;5.00;1.40;;;24.80;99.90;;;;;;5052587;28;20192;-74
2021/05/01 02:57:36;;;;;;;4.80;1.97;;;25.30;99.90;;;;;;5052533;28;20554;-71
2021/05/01 03:00:10;;;;;;;6.60;1.30;;;25.50;99.90;;;;;;5056470;28;20207;-75
2021/05/01 03:02:38;;;;;;;8.70;1.90;;;25.20;99.90;;;;;;5054378;28;20618;-77
2021/05/01 03:05:07;;;;;;;3.57;0.93;;;25.40;99.90;;;;;;5053696;28;20187;-74
2021/05/01 03:07:35;;;;;;;6.17;1.03;;;25.20;99.90;;;;;;5053059;28;20604;-76
2021/05/01 03:10:08;;;;;;;7.00;1.00;;;24.70;99.90;;;;;;5054397;28;20654;-75
2021/05/01 03:12:36;;;;;;;4.07;1.00;;;24.50;99.90;;;;;;5053251;28;20187;-73
2021/05/01 03:15:05;;;;;;;3.60;1.57;;;24.50;99.90;;;;;;5057401;28;20650;-76
2021/05/01 03:17:33;;;;;;;2.67;0.90;;;25.00;99.90;;;;;;5051612;28;20222;-73
2021/05/01 03:20:01;;;;;;;5.47;1.30;;;25.00;99.90;;;;;;5054289;28;20188;-75
2021/05/01 03:22:28;;;;;;;4.20;1.03;;;24.40;99.90;;;;;;5051024;28;20583;-77
2021/05/01 03:24:56;;;;;;;5.73;1.27;;;24.10;99.90;;;;;;5056197;28;20262;-77
2021/05/01 03:27:23;;;;;;;6.93;2.83;;;24.20;99.90;;;;;;5052641;28;20230;-75
2021/05/01 03:29:51;;;;;;;4.13;1.53;;;23.80;99.90;;;;;;5054098;28;20670;-73
2021/05/01 03:32:18;;;;;;;4.87;1.83;;;23.50;99.90;;;;;;5050045;28;20658;-69
2021/05/01 03:34:46;;;;;;;6.93;1.33;;;23.10;99.90;;;;;;5051262;28;20196;-70
2021/05/01 03:37:13;;;;;;;5.27;1.00;;;22.90;99.90;;;;;;5056943;28;20593;-69
2021/05/01 03:39:41;;;;;;;4.60;1.50;;;22.70;99.90;;;;;;5052137;28;20278;-70
2021/05/01 03:42:09;;;;;;;6.40;1.00;;;22.60;99.90;;;;;;5059679;28;20194;-71
2021/05/01 03:44:36;;;;;;;5.10;1.20;;;23.20;99.90;;;;;;5052376;28;20196;-69
2021/05/01 03:47:04;;;;;;;3.17;0.90;;;23.40;99.90;;;;;;5052557;28;20623;-70
2021/05/01 03:49:31;;;;;;;8.40;1.50;;;23.30;99.90;;;;;;5056995;28;20195;-70
2021/05/01 03:51:59;;;;;;;5.43;1.10;;;24.00;99.90;;;;;;5056727;28;20184;-70
2021/05/01 03:54:26;;;;;;;6.53;1.10;;;25.00;99.90;;;;;;5058222;28;20188;-70
2021/05/01 03:56:54;;;;;;;4.30;1.37;;;25.20;99.90;;;;;;5052477;28;20191;-70
2021/05/01 03:59:21;;;;;;;9.80;0.70;;;25.70;99.90;;;;;;5057025;28;20218;-70
2021/05/01 04:01:50;;;;;;;5.37;0.93;;;26.00;99.90;;;;;;5054403;28;20179;-71
2021/05/01 04:04:19;;;;;;;4.87;1.07;;;26.30;99.90;;;;;;5057820;28;20596;-73
2021/05/01 04:06:49;;;;;;;4.07;1.03;;;25.80;99.90;;;;;;5052037;28;20203;-73
2021/05/01 04:09:17;;;;;;;1.93;0.73;;;24.90;99.90;;;;;;5051282;28;20203;-75
2021/05/01 04:11:44;;;;;;;3.77;1.20;;;24.60;99.90;;;;;;5056514;28;20193;-74
2021/05/01 04:14:12;;;;;;;3.97;1.10;;;24.90;99.90;;;;;;5045396;28;20270;-74
2021/05/01 04:16:39;;;;;;;4.07;1.10;;;24.60;99.90;;;;;;5058289;28;20194;-74
2021/05/01 04:19:06;;;;;;;2.73;0.83;;;24.80;99.90;;;;;;5050990;28;20183;-75
2021/05/01 04:21:34;;;;;;;2.97;1.10;;;25.10;99.90;;;;;;5056298;28;20191;-75
2021/05/01 04:24:01;;;;;;;3.80;1.53;;;24.70;99.90;;;;;;5052280;28;20192;-71
2021/05/01 04:26:29;;;;;;;3.73;0.90;;;24.10;99.90;;;;;;5058783;28;20695;-71
2021/05/01 04:28:57;;;;;;;4.23;1.00;;;23.70;99.90;;;;;;5050627;28;20219;-74
2021/05/01 04:31:24;;;;;;;3.23;1.10;;;23.90;99.90;;;;;;5054146;28;20251;-74
2021/05/01 04:33:52;;;;;;;4.40;1.40;;;23.60;99.90;;;;;;5059874;28;20180;-75
2021/05/01 04:36:19;;;;;;;5.17;1.27;;;23.40;99.90;;;;;;5058554;28;20237;-78
2021/05/01 04:38:47;;;;;;;4.17;1.13;;;23.40;99.90;;;;;;5056189;28;20199;-76
2021/05/01 04:41:14;;;;;;;4.93;1.80;;;23.10;99.90;;;;;;5055756;28;20192;-76
2021/05/01 04:43:44;;;;;;;5.40;1.30;;;23.40;99.90;;;;;;5054759;28;20242;-73
2021/05/01 04:46:15;;;;;;;4.20;1.20;;;23.50;99.90;;;;;;5056454;28;20191;-72
2021/05/01 04:48:42;;;;;;;11.70;1.57;;;23.50;99.90;;;;;;5056559;28;20215;-76
2021/05/01 04:51:10;;;;;;;7.50;1.03;;;24.20;99.90;;;;;;5054290;28;20230;-74
2021/05/01 04:53:38;;;;;;;4.90;1.10;;;24.60;99.90;;;;;;5056983;28;20183;-74
2021/05/01 04:56:05;;;;;;;4.90;0.77;;;25.20;99.90;;;;;;5056934;28;20552;-79
2021/05/01 04:58:33;;;;;;;2.77;0.60;;;25.20;99.90;;;;;;5055174;28;20192;-76
2021/05/01 05:01:00;;;;;;;5.77;1.10;;;24.90;99.90;;;;;;5053858;28;20543;-77
2021/05/01 05:03:28;;;;;;;10.33;2.13;;;24.60;99.90;;;;;;5057769;28;20192;-76
2021/05/01 05:05:55;;;;;;;19.63;9.47;;;23.90;99.90;;;;;;5056772;28;20180;-74
2021/05/01 05:08:22;;;;;;;12.80;2.57;;;23.50;99.90;;;;;;5053030;28;20342;-77
2021/05/01 05:10:50;;;;;;;6.90;1.47;;;23.30;99.90;;;;;;5057504;28;20583;-78
2021/05/01 05:13:24;;;;;;;9.10;1.50;;;23.30;99.90;;;;;;5057488;28;20263;-78
2021/05/01 05:15:52;;;;;;;8.27;1.20;;;23.60;99.90;;;;;;5052269;28;20175;-77
2021/05/01 05:18:20;;;;;;;10.07;1.42;;;24.20;99.90;;;;;;5057194;28;20413;-80
2021/05/01 05:20:48;;;;;;;6.37;1.37;;;24.80;99.90;;;;;;5056341;28;20195;-74
2021/05/01 05:23:15;;;;;;;5.77;1.30;;;24.00;99.90;;;;;;5056883;28;20226;-72
2021/05/01 05:25:42;;;;;;;4.80;1.03;;;23.60;99.90;;;;;;5057902;28;20175;-74
2021/05/01 05:28:10;;;;;;;6.17;1.10;;;23.10;99.90;;;;;;5056369;28;20207;-74
2021/05/01 05:30:37;;;;;;;6.80;1.67;;;22.60;99.90;;;;;;5053999;28;20690;-74
2021/05/01 05:33:05;;;;;;;9.30;1.40;;;22.40;99.90;;;;;;5051416;28;20706;-72
2021/05/01 05:35:32;;;;;;;6.00;1.10;;;22.30;99.90;;;;;;5051002;28;20172;-74
2021/05/01 05:38:01;;;;;;;4.30;1.30;;;22.10;99.90;;;;;;5053649;28;20180;-74
2021/05/01 05:40:29;;;;;;;5.17;1.40;;;22.00;99.90;;;;;;5051821;28;20206;-77
2021/05/01 05:42:56;;;;;;;8.47;1.40;;;22.00;99.90;;;;;;5052192;28;20540;-76
2021/05/01 05:45:29;;;;;;;8.40;1.10;;;22.00;99.90;;;;;;5053663;28;20202;-73
2021/05/01 05:47:57;;;;;;;6.80;1.27;;;21.90;99.90;;;;;;5053124;28;20219;-74
2021/05/01 05:50:25;;;;;;;7.43;1.30;;;22.10;99.90;;;;;;5052386;28;20245;-74
2021/05/01 05:52:52;;;;;;;4.63;1.10;;;22.10;99.90;;;;;;5047213;28;20226;-75
2021/05/01 05:55:20;;;;;;;7.63;1.40;;;22.00;99.90;;;;;;5053386;28;20180;-73
2021/05/01 05:57:52;;;;;;;5.63;1.17;;;22.20;99.90;;;;;;5052053;28;20184;-75
2021/05/01 06:00:22;;;;;;;6.87;1.10;;;22.40;99.90;;;;;;5052632;28;20921;-78
2021/05/01 06:02:51;;;;;;;6.93;1.10;;;22.50;99.90;;;;;;5046445;28;20259;-75
2021/05/01 06:05:34;;;;;;;7.57;1.20;;;23.00;99.90;;;;;;5053315;28;20609;-72
2021/05/01 06:08:08;;;;;;;7.60;1.73;;;23.40;99.90;;;;;;5046716;28;20215;-69
2021/05/01 06:10:37;;;;;;;7.07;1.10;;;23.60;99.90;;;;;;5052518;28;20184;-78
2021/05/01 06:13:05;;;;;;;6.70;1.00;;;23.10;99.90;;;;;;5053361;28;20187;-78
2021/05/01 06:15:33;;;;;;;7.23;1.10;;;22.90;99.90;;;;;;5051667;28;20168;-77
2021/05/01 06:18:02;;;;;;;3.17;1.00;;;22.70;99.90;;;;;;5053790;28;20245;-76
2021/05/01 06:20:31;;;;;;;6.07;1.67;;;22.40;99.90;;;;;;5051302;28;20187;-76
2021/05/01 06:23:01;;;;;;;5.40;1.10;;;22.40;99.90;;;;;;5053367;28;20176;-72
2021/05/01 06:25:29;;;;;;;6.90;1.27;;;22.20;99.90;;;;;;5053421;28;20202;-72
2021/05/01 06:27:57;;;;;;;6.03;1.20;;;22.10;99.90;;;;;;5052614;28;20212;-75
2021/05/01 06:30:25;;;;;;;4.53;1.07;;;22.10;99.90;;;;;;5057459;28;20273;-77
2021/05/01 06:32:54;;;;;;;7.90;1.40;;;21.90;99.90;;;;;;5055227;28;20556;-77
2021/05/01 06:35:21;;;;;;;7.93;1.47;;;21.80;99.90;;;;;;5055812;28;20195;-72
2021/05/01 06:37:51;;;;;;;6.33;1.10;;;21.60;99.90;;;;;;5054772;28;20677;-73
2021/05/01 06:40:22;;;;;;;4.17;1.03;;;21.50;99.90;;;;;;5053645;28;20184;-75
2021/05/01 06:43:01;;;;;;;5.70;1.33;;;21.40;99.90;;;;;;5045350;28;20609;-75
2021/05/01 06:45:29;;;;;;;5.73;0.90;;;21.30;99.90;;;;;;5051940;28;20172;-74
2021/05/01 06:48:01;;;;;;;8.90;1.57;;;21.20;99.90;;;;;;5053149;28;20273;-71
2021/05/01 06:50:29;;;;;;;5.73;1.27;;;21.20;99.90;;;;;;5060459;28;20187;-75
2021/05/01 06:52:57;;;;;;;11.07;1.33;;;21.10;99.90;;;;;;5050836;28;20223;-74
2021/05/01 06:55:27;;;;;;;11.77;1.93;;;21.00;99.90;;;;;;5053226;28;20532;-76
2021/05/01 06:57:56;;;;;;;8.57;1.40;;;21.00;99.90;;;;;;5051178;28;20179;-72
2021/05/01 07:00:25;;;;;;;9.40;1.30;;;21.00;99.90;;;;;;5054617;28;20275;-77
2021/05/01 07:03:07;;;;;;;12.83;1.60;;;20.90;99.90;;;;;;5050207;28;20526;-76
2021/05/01 07:05:35;;;;;;;7.83;1.40;;;20.90;99.90;;;;;;5052768;28;20233;-76
2021/05/01 07:08:04;;;;;;;5.27;1.40;;;20.90;99.90;;;;;;5051244;28;20192;-77
2021/05/01 07:10:32;;;;;;;4.17;1.10;;;20.80;99.90;;;;;;5051672;28;20178;-77
2021/05/01 07:13:02;;;;;;;4.63;1.10;;;20.70;99.90;;;;;;5055094;28;20261;-76
2021/05/01 07:15:30;;;;;;;11.93;2.00;;;20.60;99.90;;;;;;5056288;28;20207;-76
2021/05/01 07:17:57;;;;;;;6.70;1.57;;;20.60;99.90;;;;;;5054490;28;20314;-74
2021/05/01 07:20:25;;;;;;;8.53;1.40;;;20.60;99.90;;;;;;5053487;28;20187;-73
2021/05/01 07:22:53;;;;;;;5.63;1.40;;;20.50;99.90;;;;;;5051636;28;20180;-74
2021/05/01 07:25:22;;;;;;;8.60;1.90;;;20.50;99.90;;;;;;5051173;28;20180;-75
2021/05/01 07:28:00;;;;;;;7.50;1.47;;;20.50;99.90;;;;;;5051791;28;20285;-74
2021/05/01 07:30:29;;;;;;;8.80;1.80;;;20.50;99.90;;;;;;5054248;28;20254;-73
2021/05/01 07:33:35;;;;;;;7.53;1.57;;;20.50;99.90;;;;;;5073589;28;20187;-72
2021/05/01 07:36:14;;;;;;;10.43;1.87;;;20.50;99.90;;;;;;5047783;28;20184;-74
2021/05/01 07:38:44;;;;;;;6.20;1.40;;;20.50;99.90;;;;;;5053582;28;20246;-74
2021/05/01 07:41:15;;;;;;;4.97;1.63;;;20.60;99.90;;;;;;5053161;28;20218;-74
2021/05/01 07:43:48;;;;;;;5.23;1.53;;;20.60;99.90;;;;;;5056898;28;20266;-73
2021/05/01 07:46:16;;;;;;;10.10;1.47;;;20.50;99.90;;;;;;5055446;28;20539;-70
2021/05/01 07:48:47;;;;;;;6.53;1.13;;;20.50;99.90;;;;;;5053291;28;20215;-71
2021/05/01 07:51:14;;;;;;;4.93;1.60;;;20.50;99.90;;;;;;5052840;28;20179;-68
2021/05/01 07:53:44;;;;;;;8.30;1.97;;;20.50;99.90;;;;;;5054801;28;20642;-72
2021/05/01 07:56:12;;;;;;;3.67;1.10;;;20.50;99.90;;;;;;5054182;28;20310;-71
2021/05/01 07:58:39;;;;;;;3.13;1.20;;;20.50;99.90;;;;;;5050114;28;20192;-73
2021/05/01 08:01:06;;;;;;;7.00;1.50;;;20.40;99.90;;;;;;5055642;28;20210;-71
2021/05/01 08:03:35;;;;;;;7.97;1.90;;;20.40;99.90;;;;;;5048643;28;20183;-75
2021/05/01 08:06:02;;;;;;;5.83;1.30;;;20.40;99.90;;;;;;5054046;28;20630;-69
2021/05/01 08:08:30;;;;;;;7.53;2.03;;;20.40;99.90;;;;;;5052334;28;20207;-72
2021/05/01 08:10:57;;;;;;;5.57;1.93;;;20.40;99.90;;;;;;5050935;28;20183;-69
2021/05/01 08:13:24;;;;;;;4.73;2.40;;;20.40;99.90;;;;;;5050195;28;20213;-71
2021/05/01 08:15:52;;;;;;;7.63;4.67;;;20.40;99.90;;;;;;5054228;28;20263;-71
2021/05/01 08:18:19;;;;;;;8.77;3.73;;;20.40;99.90;;;;;;5054973;28;20180;-68
2021/05/01 08:20:50;;;;;;;4.93;1.80;;;20.40;99.90;;;;;;5055915;28;20310;-69
2021/05/01 08:23:17;;;;;;;4.47;1.90;;;20.30;99.90;;;;;;5055199;28;20179;-68
2021/05/01 08:25:45;;;;;;;8.00;1.60;;;20.30;99.90;;;;;;5056550;28;20176;-69
2021/05/01 08:28:16;;;;;;;8.23;1.50;;;20.30;99.90;;;;;;5053252;28;20219;-71
2021/05/01 08:30:45;;;;;;;5.80;1.07;;;20.20;99.90;;;;;;5050948;28;20316;-71
2021/05/01 08:33:12;;;;;;;5.07;1.40;;;20.30;99.90;;;;;;5062407;28;20670;-70
2021/05/01 08:35:40;;;;;;;8.17;1.50;;;20.30;99.90;;;;;;5057187;28;20190;-68
2021/05/01 08:38:07;;;;;;;10.80;1.80;;;20.30;99.90;;;;;;5060300;28;20676;-71
2021/05/01 08:40:35;;;;;;;9.50;2.00;;;20.30;99.90;;;;;;5056061;28;20180;-69
2021/05/01 08:43:03;;;;;;;5.60;1.37;;;20.20;99.90;;;;;;5057761;28;20665;-72
2021/05/01 08:45:32;;;;;;;9.83;1.67;;;20.20;99.90;;;;;;5055814;28;20182;-71
2021/05/01 08:48:01;;;;;;;6.50;1.73;;;20.20;99.90;;;;;;5050040;28;20192;-71
2021/05/01 08:50:31;;;;;;;7.33;2.03;;;20.20;99.90;;;;;;5052731;28;20186;-70
2021/05/01 08:53:02;;;;;;;11.10;2.43;;;20.20;99.90;;;;;;5050566;28;20172;-70
2021/05/01 08:55:35;;;;;;;7.57;1.70;;;20.20;99.90;;;;;;5049257;28;20284;-74
2021/05/01 08:58:11;;;;;;;9.60;1.70;;;20.20;99.90;;;;;;5049300;28;20226;-76
2021/05/01 09:00:43;;;;;;;7.77;1.80;;;20.20;99.90;;;;;;5054090;28;20187;-76
2021/05/01 09:03:13;;;;;;;6.47;2.63;;;20.20;99.90;;;;;;5045172;28;20222;-76
2021/05/01 09:05:42;;;;;;;6.07;2.23;;;20.10;99.90;;;;;;5053090;28;20176;-77
2021/05/01 09:08:11;;;;;;;9.73;2.63;;;20.10;99.90;;;;;;5041722;28;20211;-74
2021/05/01 09:10:41;;;;;;;11.07;3.27;;;20.00;99.90;;;;;;5051568;28;20168;-77
2021/05/01 09:13:32;;;;;;;10.40;3.07;;;19.90;99.90;;;;;;5054310;28;20716;-75
2021/05/01 09:16:06;;;;;;;9.20;3.00;;;19.90;99.90;;;;;;5066408;28;20199;-77
2021/05/01 09:18:58;;;;;;;9.30;4.43;;;19.90;99.90;;;;;;5050505;28;20669;-71
2021/05/01 09:21:26;;;;;;;10.37;2.60;;;19.80;99.90;;;;;;5054071;28;20294;-74
2021/05/01 09:23:55;;;;;;;10.00;2.70;;;19.80;99.90;;;;;;5056568;28;20184;-76
2021/05/01 09:26:42;;;;;;;12.73;2.40;;;19.80;99.90;;;;;;5058055;28;20186;-71
2021/05/01 09:29:10;;;;;;;17.23;2.83;;;19.80;99.90;;;;;;5055545;28;20216;-72
2021/05/01 09:31:48;;;;;;;13.50;2.97;;;19.80;99.90;;;;;;5053624;28;20365;-72
2021/05/01 09:34:15;;;;;;;7.80;2.63;;;19.70;99.90;;;;;;5055430;28;20184;-69
2021/05/01 09:36:45;;;;;;;13.63;2.87;;;19.70;99.90;;;;;;5069851;28;20633;-73
2021/05/01 09:39:14;;;;;;;16.40;3.13;;;19.70;99.90;;;;;;5059035;28;20210;-75
2021/05/01 09:41:46;;;;;;;11.40;2.20;;;19.70;99.90;;;;;;5054268;28;20191;-70
2021/05/01 09:44:18;;;;;;;9.87;2.13;;;19.70;99.90;;;;;;5048359;28;20192;-71
2021/05/01 09:46:49;;;;;;;10.93;2.90;;;19.70;99.90;;;;;;5049503;28;20199;-71
2021/05/01 09:49:23;;;;;;;14.63;3.07;;;19.60;99.90;;;;;;5052839;28;20302;-73
2021/05/01 09:51:56;;;;;;;12.37;2.87;;;19.50;99.90;;;;;;5052906;28;20199;-77
2021/05/01 09:54:35;;;;;;;8.83;2.03;;;19.50;99.90;;;;;;5051807;28;20253;-76
2021/05/01 09:57:07;;;;;;;7.40;2.03;;;19.60;99.90;;;;;;5053304;28;20183;-73
2021/05/01 09:59:42;;;;;;;10.27;1.97;;;19.50;99.90;;;;;;5053372;28;20552;-72
2021/05/01 10:02:11;;;;;;;15.47;2.37;;;19.50;99.90;;;;;;5053629;28;20191;-76
2021/05/01 10:04:39;;;;;;;14.40;2.60;;;19.40;99.90;;;;;;5053181;28;20214;-75
2021/05/01 10:07:09;;;;;;;9.50;2.40;;;19.40;99.90;;;;;;5052089;28;20718;-72
2021/05/01 10:09:41;;;;;;;15.80;3.00;;;19.40;99.90;;;;;;5045097;28;20187;-76
2021/05/01 10:12:14;;;;;;;9.10;2.73;;;19.50;99.90;;;;;;5053712;28;20209;-75
2021/05/01 10:14:48;;;;;;;10.60;3.47;;;19.40;99.90;;;;;;5048866;28;20187;-75
2021/05/01 10:17:25;;;;;;;9.73;3.30;;;19.40;99.90;;;;;;5053142;28;20270;-75
2021/05/01 10:19:55;;;;;;;11.10;2.87;;;19.50;99.90;;;;;;5049606;28;20634;-75
2021/05/01 10:22:37;;;;;;;9.50;3.50;;;19.40;99.90;;;;;;5049012;28;20553;-77
2021/05/01 10:25:20;;;;;;;10.23;3.00;;;19.40;99.90;;;;;;5051161;28;20589;-73
2021/05/01 10:27:57;;;;;;;9.23;2.30;;;19.30;99.90;;;;;;5045943;28;20215;-75
2021/05/01 10:36:23;;;;;;;9.30;1.97;;;19.40;99.90;;;;;;5045485;28;20180;-76
2021/05/01 10:39:09;;;;;;;8.67;1.60;;;19.40;99.90;;;;;;5049849;28;20263;-74
2021/05/01 10:41:37;;;;;;;13.83;1.80;;;19.40;99.90;;;;;;5051929;28;20199;-77
2021/05/01 10:44:07;;;;;;;4.40;1.33;;;19.40;99.90;;;;;;5051559;28;20531;-74
2021/05/01 10:46:39;;;;;;;6.23;1.33;;;19.50;99.90;;;;;;5052296;28;20183;-75
2021/05/01 10:49:08;;;;;;;13.80;3.93;;;19.50;99.90;;;;;;5050985;28;20218;-77
2021/05/01 10:51:52;;;;;;;11.53;3.97;;;19.60;99.90;;;;;;5049742;28;20176;-76
2021/05/01 10:54:22;;;;;;;10.63;2.77;;;19.60;99.90;;;;;;5066746;28;20617;-72
2021/05/01 10:56:57;;;;;;;9.40;2.17;;;19.50;99.90;;;;;;5046836;28;20266;-75
2021/05/01 10:59:30;;;;;;;5.40;1.67;;;19.50;99.90;;;;;;5052567;28;20176;-74
2021/05/01 11:02:01;;;;;;;8.40;1.80;;;19.50;99.90;;;;;;5052153;28;20180;-75
2021/05/01 11:04:31;;;;;;;5.60;1.43;;;19.50;99.90;;;;;;5049107;28;20259;-76
2021/05/01 11:07:17;;;;;;;8.83;1.70;;;19.60;99.90;;;;;;5052018;28;20614;-76
2021/05/01 11:09:51;;;;;;;12.93;1.53;;;19.50;99.90;;;;;;5047631;28;20196;-77
2021/05/01 11:12:24;;;;;;;5.57;1.27;;;19.50;99.90;;;;;;5051805;28;20184;-74
2021/05/01 11:15:09;;;;;;;12.10;1.60;;;19.50;99.90;;;;;;5051364;28;20172;-75
2021/05/01 11:18:06;;;;;;;10.37;1.50;;;19.40;99.90;;;;;;5051809;28;20184;-76
2021/05/01 11:20:35;;;;;;;13.20;1.70;;;19.40;99.90;;;;;;5048725;28;20187;-76
2021/05/01 11:23:03;;;;;;;11.57;1.80;;;19.50;99.90;;;;;;5051619;28;20223;-73
2021/05/01 11:25:33;;;;;;;6.57;1.57;;;19.40;99.90;;;;;;5052321;28;20183;-77
2021/05/01 11:28:00;;;;;;;10.03;2.03;;;19.40;99.90;;;;;;5051937;28;20290;-75
2021/05/01 11:30:29;;;;;;;5.70;1.30;;;19.30;99.90;;;;;;5050334;28;20233;-73
2021/05/01 11:32:57;;;;;;;9.53;1.80;;;19.40;99.90;;;;;;5051757;28;20676;-73
2021/05/01 11:35:28;;;;;;;7.67;1.60;;;19.40;99.90;;;;;;5051457;28;20176;-74
2021/05/01 11:37:58;;;;;;;10.45;1.55;;;19.30;99.90;;;;;;5047303;28;20504;-76
2021/05/01 11:40:28;;;;;;;6.00;1.40;;;19.40;99.90;;;;;;5050786;28;20176;-74
2021/05/01 11:42:57;;;;;;;9.87;1.80;;;19.30;99.90;;;;;;5049470;28;20528;-75
2021/05/01 11:45:42;;;;;;;12.37;2.33;;;19.30;99.90;;;;;;5051848;28;20184;-76
2021/05/01 11:48:18;;;;;;;7.47;1.80;;;19.20;99.90;;;;;;5050362;28;20321;-76
2021/05/01 11:50:49;;;;;;;10.43;2.27;;;19.20;99.90;;;;;;5051016;28;20172;-76
2021/05/01 11:53:48;;;;;;;17.83;2.03;;;19.20;99.90;;;;;;5051526;28;20184;-75
2021/05/01 11:56:43;;;;;;;15.00;1.90;;;19.20;99.90;;;;;;5048287;28;20664;-70
2021/05/01 11:59:15;;;;;;;5.97;1.40;;;19.10;99.90;;;;;;5050514;28;20701;-76
2021/05/01 12:02:03;;;;;;;8.93;1.37;;;19.10;99.90;;;;;;5040707;28;20192;-72
2021/05/01 12:05:21;;;;;;;6.30;1.70;;;19.10;99.90;;;;;;5050770;28;20183;-72
2021/05/01 12:08:03;;;;;;;10.20;1.30;;;19.10;99.90;;;;;;5047004;28;20290;-76
2021/05/01 12:10:36;;;;;;;5.53;1.10;;;19.10;99.90;;;;;;5049732;28;20180;-75
2021/05/01 12:13:17;;;;;;;5.67;1.00;;;19.10;99.90;;;;;;5050656;28;20286;-76
2021/05/01 12:15:54;;;;;;;8.53;1.07;;;19.10;99.90;;;;;;5049038;28;20251;-77
2021/05/01 12:18:21;;;;;;;9.33;1.50;;;19.10;99.90;;;;;;5051222;28;20671;-75
2021/05/01 12:20:56;;;;;;;10.87;1.47;;;19.10;99.90;;;;;;5050971;28;20183;-77
2021/05/01 12:23:44;;;;;;;6.90;1.10;;;19.00;99.90;;;;;;5051611;28;20254;-76
2021/05/01 12:26:34;;;;;;;10.97;1.27;;;19.00;99.90;;;;;;5045203;28;20216;-78
2021/05/01 12:29:23;;;;;;;10.77;1.57;;;19.00;99.90;;;;;;5048185;28;20616;-76
2021/05/01 12:31:52;;;;;;;10.13;1.93;;;19.00;99.90;;;;;;5050604;28;20230;-76
2021/05/01 12:34:21;;;;;;;17.87;1.33;;;19.00;99.90;;;;;;5050245;28;20211;-75
2021/05/01 12:36:52;;;;;;;7.57;1.30;;;19.00;99.90;;;;;;5051305;28;20180;-74
2021/05/01 12:39:20;;;;;;;8.03;1.50;;;19.00;99.90;;;;;;5051532;28;20184;-74
2021/05/01 12:41:50;;;;;;;8.43;1.53;;;19.00;99.90;;;;;;5050594;28;20213;-76
2021/05/01 12:44:35;;;;;;;6.83;1.10;;;19.00;99.90;;;;;;5050934;28;20174;-76
2021/05/01 12:47:04;;;;;;;7.70;1.17;;;18.90;99.90;;;;;;5050668;28;20714;-73
2021/05/01 12:49:34;;;;;;;7.10;1.23;;;18.90;99.90;;;;;;5050371;28;20219;-71
2021/05/01 12:52:06;;;;;;;5.57;1.50;;;18.90;99.90;;;;;;5048119;28;20746;-72
2021/05/01 12:54:44;;;;;;;5.53;1.53;;;18.90;99.90;;;;;;5069586;28;20196;-76
2021/05/01 12:57:14;;;;;;;14.53;1.57;;;18.90;99.90;;;;;;5054810;28;20522;-71
2021/05/01 12:59:44;;;;;;;13.13;1.60;;;18.90;99.90;;;;;;5053219;28;20182;-72
2021/05/01 13:02:19;;;;;;;10.10;1.97;;;18.90;99.90;;;;;;5054948;28;20526;-77
2021/05/01 13:05:25;;;;;;;8.80;1.60;;;18.90;99.90;;;;;;5051993;28;20184;-69
2021/05/01 13:07:54;;;;;;;10.47;1.40;;;18.90;99.90;;;;;;5013266;28;20263;-69
2021/05/01 13:10:23;;;;;;;8.93;1.63;;;18.90;99.90;;;;;;5048310;28;20191;-70